Time;durP1;ratioP1;P1;durP2;ratioP2;P2;SDS_P1;SDS_P2;PMS_P1;PMS_P2;Temp;Humidity;BMP_temperature;BMP_pressure;BME280_temperature;BME280_humidity;BME280_pressure;Samples;Min_cycle;Max_cycle;Signal;HPM_P1;HPM_P2
2022/04/20 00:01:42;;;;;;;0.75;0.75;;;5.10;99.90;;;;;;4935504;28;20058;-79
2022/04/20 00:04:11;;;;;;;0.60;0.60;;;5.10;99.90;;;;;;4953696;28;20046;-79
2022/04/20 00:06:37;;;;;;;0.70;0.70;;;5.00;99.90;;;;;;4928976;28;20043;-80
2022/04/20 00:09:04;;;;;;;0.60;0.60;;;4.90;99.90;;;;;;4937404;28;20063;-79
2022/04/20 00:11:35;;;;;;;0.60;0.60;;;4.90;99.90;;;;;;4965260;28;20365;-77
2022/04/20 00:14:01;;;;;;;0.52;0.52;;;4.90;99.90;;;;;;4967767;28;20047;-79
2022/04/20 00:16:28;;;;;;;0.50;0.50;;;4.90;99.90;;;;;;4946724;28;20046;-79
2022/04/20 00:18:54;;;;;;;0.60;0.60;;;4.80;99.90;;;;;;4964620;28;20083;-80
2022/04/20 00:21:21;;;;;;;0.60;0.60;;;4.80;99.90;;;;;;4965594;28;20097;-79
2022/04/20 00:23:54;;;;;;;0.68;0.68;;;4.70;99.90;;;;;;4940368;28;20045;-79
2022/04/20 00:26:19;;;;;;;0.60;0.60;;;4.80;99.90;;;;;;4967971;28;20050;-79
2022/04/20 00:28:45;;;;;;;0.60;0.60;;;4.70;99.90;;;;;;4984451;28;20058;-80
2022/04/20 00:31:19;;;;;;;0.70;0.70;;;4.70;99.90;;;;;;4968245;28;20038;-78
2022/04/20 00:33:44;;;;;;;0.60;0.60;;;4.60;99.90;;;;;;4963176;28;20447;-78
2022/04/20 00:36:10;;;;;;;0.57;0.57;;;4.50;99.90;;;;;;4966192;28;20166;-79
2022/04/20 00:38:36;;;;;;;0.50;0.50;;;4.50;99.90;;;;;;4955618;28;20050;-79
2022/04/20 00:41:03;;;;;;;0.57;0.57;;;4.50;99.90;;;;;;4982616;28;20050;-77
2022/04/20 00:43:29;;;;;;;0.50;0.50;;;4.40;99.90;;;;;;4952984;28;20458;-79
2022/04/20 00:45:56;;;;;;;0.50;0.50;;;4.50;99.90;;;;;;4925184;28;20051;-80
2022/04/20 00:48:23;;;;;;;0.70;0.70;;;4.50;99.90;;;;;;4937055;28;20038;-79
2022/04/20 00:50:50;;;;;;;0.50;0.50;;;4.50;99.90;;;;;;4967404;28;20058;-79
2022/04/20 00:53:17;;;;;;;0.60;0.60;;;4.50;99.90;;;;;;4961352;28;20134;-78
2022/04/20 00:55:43;;;;;;;0.70;0.70;;;4.50;99.90;;;;;;4962711;28;20051;-79
2022/04/20 00:58:08;;;;;;;0.68;0.68;;;4.50;99.90;;;;;;4961905;28;20059;-79
2022/04/20 01:00:35;;;;;;;0.68;0.68;;;4.50;99.90;;;;;;4957672;28;20085;-79
2022/04/20 01:03:01;;;;;;;0.60;0.60;;;4.50;99.90;;;;;;4960652;28;20550;-79
2022/04/20 01:05:28;;;;;;;0.77;0.77;;;4.50;99.90;;;;;;4951756;28;20068;-78
2022/04/20 01:07:55;;;;;;;0.60;0.60;;;4.60;99.90;;;;;;4956092;28;20115;-80
2022/04/20 01:10:21;;;;;;;0.60;0.60;;;4.70;99.90;;;;;;4960096;28;20546;-79
2022/04/20 01:12:47;;;;;;;0.75;0.75;;;4.70;99.90;;;;;;4945055;28;20146;-78
2022/04/20 01:15:12;;;;;;;;;;;4.70;99.90;;;;;;4959553;28;20047;-79
2022/04/20 01:17:39;;;;;;;0.70;0.70;;;4.80;99.90;;;;;;4965302;28;19928;-79
2022/04/20 01:20:15;;;;;;;0.60;0.60;;;4.80;99.90;;;;;;4964953;28;20043;-78
2022/04/20 01:22:41;;;;;;;0.68;0.68;;;4.90;99.90;;;;;;4947918;28;20039;-78
2022/04/20 01:25:08;;;;;;;0.50;0.50;;;5.00;99.90;;;;;;4958288;28;20046;-78
2022/04/20 01:27:35;;;;;;;0.55;0.55;;;5.00;99.90;;;;;;4959999;28;20109;-78
2022/04/20 01:30:01;;;;;;;0.50;0.50;;;5.00;99.90;;;;;;4963165;28;20043;-78
2022/04/20 01:32:26;;;;;;;0.50;0.50;;;5.00;99.90;;;;;;4955246;28;20081;-79
2022/04/20 01:34:52;;;;;;;0.60;0.60;;;5.00;99.90;;;;;;4947662;28;20039;-79
2022/04/20 01:37:23;;;;;;;0.70;0.70;;;5.00;99.90;;;;;;4970759;28;20053;-79
2022/04/20 01:39:49;;;;;;;0.52;0.52;;;5.00;99.90;;;;;;4943102;28;20043;-79
2022/04/20 01:42:15;;;;;;;0.60;0.60;;;5.00;99.90;;;;;;4972073;28;20122;-78
2022/04/20 01:44:40;;;;;;;0.52;0.52;;;5.00;99.90;;;;;;4971392;28;20043;-78
2022/04/20 01:47:06;;;;;;;0.60;0.60;;;5.10;99.90;;;;;;4939426;28;20053;-78
2022/04/20 01:49:32;;;;;;;0.65;0.65;;;4.90;99.90;;;;;;4938129;28;20043;-79
2022/04/20 01:51:58;;;;;;;0.50;0.50;;;4.90;99.90;;;;;;4955359;28;20049;-78
2022/04/20 01:54:24;;;;;;;0.50;0.50;;;4.80;99.90;;;;;;4946964;28;20039;-80
2022/04/20 01:56:51;;;;;;;0.63;0.63;;;4.80;99.90;;;;;;4971303;28;20055;-77
2022/04/20 01:59:19;;;;;;;0.52;0.52;;;4.80;99.90;;;;;;4953095;28;20050;-80
2022/04/20 02:04:32;;;;;;;0.60;0.60;;;4.70;99.90;;;;;;4963063;28;20047;-78
2022/04/20 02:06:58;;;;;;;0.50;0.50;;;4.70;99.90;;;;;;4971127;28;20054;-78
2022/04/20 02:09:25;;;;;;;0.60;0.60;;;4.60;99.90;;;;;;4965679;28;20046;-78
2022/04/20 02:11:51;;;;;;;0.60;0.60;;;4.60;99.90;;;;;;4957356;28;20051;-78
2022/04/20 02:14:17;;;;;;;0.60;0.60;;;4.50;99.90;;;;;;4961324;28;20429;-78
2022/04/20 02:16:43;;;;;;;0.65;0.65;;;4.50;99.90;;;;;;4949379;28;20073;-77
2022/04/20 02:19:09;;;;;;;0.45;0.45;;;4.50;99.90;;;;;;4969308;28;20051;-78
2022/04/20 02:21:34;;;;;;;0.80;0.80;;;4.50;99.90;;;;;;4970050;28;20066;-78
2022/04/20 02:24:00;;;;;;;0.60;0.60;;;4.50;99.90;;;;;;4954007;28;20042;-78
2022/04/20 02:26:27;;;;;;;0.60;0.60;;;4.50;99.90;;;;;;4955397;28;20122;-78
2022/04/20 02:28:52;;;;;;;0.57;0.57;;;4.60;99.90;;;;;;4963147;28;20047;-78
2022/04/20 02:31:18;;;;;;;0.50;0.50;;;4.60;99.90;;;;;;4963027;28;20039;-78
2022/04/20 02:33:44;;;;;;;0.50;0.50;;;4.70;99.90;;;;;;4953550;28;20045;-78
2022/04/20 02:36:10;;;;;;;0.60;0.60;;;4.70;99.90;;;;;;4962215;28;20039;-77
2022/04/20 02:38:36;;;;;;;0.50;0.50;;;4.70;99.90;;;;;;4954933;28;20118;-78
2022/04/20 02:41:02;;;;;;;0.52;0.52;;;4.90;99.90;;;;;;4968133;28;20125;-79
2022/04/20 02:43:28;;;;;;;0.70;0.70;;;4.90;99.90;;;;;;4974242;28;20042;-79
2022/04/20 02:45:57;;;;;;;0.80;0.80;;;4.90;99.90;;;;;;4952459;28;20039;-78
2022/04/20 02:48:23;;;;;;;0.57;0.57;;;4.90;99.90;;;;;;4964245;28;20043;-79
2022/04/20 02:50:49;;;;;;;0.60;0.60;;;4.90;99.90;;;;;;4970568;28;20049;-78
2022/04/20 02:53:14;;;;;;;0.52;0.52;;;4.90;99.90;;;;;;4965124;28;20039;-78
2022/04/20 02:55:42;;;;;;;0.60;0.60;;;4.90;99.90;;;;;;4953295;28;20043;-78
2022/04/20 02:58:08;;;;;;;0.60;0.60;;;4.90;99.90;;;;;;4959855;28;20058;-78
2022/04/20 03:00:39;;;;;;;;;;;4.90;99.90;;;;;;4932719;28;20054;-78
2022/04/20 03:03:05;;;;;;;0.50;0.50;;;4.80;99.90;;;;;;4964632;28;20001;-79
2022/04/20 03:05:31;;;;;;;0.60;0.60;;;4.80;99.90;;;;;;4970193;28;20118;-78
2022/04/20 03:07:57;;;;;;;0.50;0.50;;;4.80;99.90;;;;;;4968352;28;20050;-78
2022/04/20 03:10:23;;;;;;;0.60;0.60;;;4.80;99.90;;;;;;4973786;28;20043;-79
2022/04/20 03:12:50;;;;;;;0.50;0.50;;;4.70;99.90;;;;;;4954687;28;20496;-79
2022/04/20 03:15:16;;;;;;;0.60;0.60;;;4.70;99.90;;;;;;4948294;28;20043;-79
2022/04/20 03:17:43;;;;;;;0.57;0.57;;;4.60;99.90;;;;;;4953374;28;20120;-78
2022/04/20 03:20:15;;;;;;;0.60;0.60;;;4.60;99.90;;;;;;4958681;28;20066;-78
2022/04/20 03:22:41;;;;;;;0.50;0.50;;;4.50;99.90;;;;;;4952043;28;20050;-79
2022/04/20 03:25:07;;;;;;;0.52;0.52;;;4.50;99.90;;;;;;4960505;28;20419;-78
2022/04/20 03:27:33;;;;;;;0.55;0.55;;;4.40;99.90;;;;;;4948123;28;20043;-78
2022/04/20 03:29:58;;;;;;;0.60;0.60;;;4.30;99.90;;;;;;4946900;28;20056;-79
2022/04/20 03:32:25;;;;;;;0.60;0.60;;;4.30;99.90;;;;;;4961233;28;20042;-78
2022/04/20 03:34:51;;;;;;;0.50;0.50;;;4.20;99.90;;;;;;4934511;28;20046;-78
2022/04/20 03:37:20;;;;;;;0.60;0.60;;;4.10;99.90;;;;;;4965230;28;20047;-78
2022/04/20 03:39:46;;;;;;;0.68;0.68;;;4.00;99.90;;;;;;4937783;28;20070;-78
2022/04/20 03:42:11;;;;;;;0.63;0.63;;;3.90;99.90;;;;;;4944178;28;20076;-78
2022/04/20 03:44:38;;;;;;;0.60;0.60;;;3.90;99.90;;;;;;4954111;28;20132;-79
2022/04/20 03:47:04;;;;;;;0.68;0.68;;;3.80;99.90;;;;;;4970477;28;20100;-79
2022/04/20 03:49:30;;;;;;;;;;;3.70;99.90;;;;;;4920296;28;20080;-79
2022/04/20 03:51:56;;;;;;;0.60;0.60;;;3.60;99.90;;;;;;4968837;28;20035;-79
2022/04/20 03:54:22;;;;;;;0.50;0.50;;;3.60;99.90;;;;;;4938767;28;20045;-78
2022/04/20 03:59:36;;;;;;;0.50;0.50;;;3.40;99.90;;;;;;4953320;28;20093;-78
2022/04/20 04:02:03;;;;;;;0.60;0.60;;;3.40;99.90;;;;;;4969482;28;20046;-78
2022/04/20 04:04:29;;;;;;;0.60;0.60;;;3.30;99.90;;;;;;4967547;28;20075;-79
2022/04/20 04:06:54;;;;;;;0.70;0.70;;;3.30;99.90;;;;;;4993118;28;20078;-77
2022/04/20 04:09:20;;;;;;;0.60;0.60;;;3.20;99.90;;;;;;4967968;28;20172;-79
2022/04/20 04:11:47;;;;;;;0.70;0.70;;;3.20;99.90;;;;;;4937209;28;20046;-78
2022/04/20 04:14:13;;;;;;;0.50;0.50;;;3.20;99.90;;;;;;4952897;28;20042;-79
2022/04/20 04:16:39;;;;;;;0.75;0.75;;;3.10;99.90;;;;;;4963345;28;20353;-78
2022/04/20 04:19:05;;;;;;;0.77;0.77;;;3.10;99.90;;;;;;4963976;28;20488;-78
2022/04/20 04:21:33;;;;;;;0.70;0.70;;;3.10;99.90;;;;;;4961325;28;20077;-79
2022/04/20 04:23:59;;;;;;;0.70;0.70;;;3.00;99.90;;;;;;4950228;28;20047;-79
2022/04/20 04:26:25;;;;;;;;;;;3.10;99.90;;;;;;4945288;28;20436;-78
2022/04/20 04:28:51;;;;;;;0.60;0.60;;;2.90;99.90;;;;;;4966921;28;19975;-79
2022/04/20 04:31:17;;;;;;;0.68;0.68;;;2.90;99.90;;;;;;4963785;28;20163;-79
2022/04/20 04:33:43;;;;;;;0.70;0.70;;;2.90;99.90;;;;;;4967898;28;20099;-79
2022/04/20 04:36:08;;;;;;;0.70;0.70;;;2.80;99.90;;;;;;4959772;28;20046;-78
2022/04/20 04:38:34;;;;;;;0.80;0.80;;;2.80;99.90;;;;;;4932085;28;20157;-78
2022/04/20 04:41:00;;;;;;;0.70;0.70;;;2.80;99.90;;;;;;4960937;28;20387;-78
2022/04/20 04:43:25;;;;;;;0.70;0.70;;;2.90;99.90;;;;;;4931693;28;20043;-79
2022/04/20 04:48:37;;;;;;;0.60;0.60;;;2.90;99.90;;;;;;4961006;28;20043;-79
2022/04/20 04:51:03;;;;;;;1.00;1.00;;;3.10;99.90;;;;;;4967185;28;20038;-79
2022/04/20 04:53:29;;;;;;;0.77;0.77;;;3.00;99.90;;;;;;4978944;28;20047;-79
2022/04/20 04:55:55;;;;;;;0.80;0.80;;;3.00;99.90;;;;;;4942190;28;20098;-79
2022/04/20 04:58:21;;;;;;;0.70;0.70;;;3.00;99.90;;;;;;4943440;28;20086;-79
2022/04/20 05:00:47;;;;;;;0.80;0.80;;;3.00;99.90;;;;;;4950167;28;20046;-79
2022/04/20 05:03:16;;;;;;;;;;;3.00;99.90;;;;;;4978491;28;20043;-78
2022/04/20 05:05:51;;;;;;;0.60;0.60;;;3.10;99.90;;;;;;4970601;28;19925;-79
2022/04/20 05:08:17;;;;;;;0.80;0.80;;;3.10;99.90;;;;;;4960109;28;20043;-78
2022/04/20 05:10:42;;;;;;;0.60;0.60;;;3.30;99.90;;;;;;4967965;28;20187;-80
2022/04/20 05:13:14;;;;;;;0.85;0.85;;;3.30;99.90;;;;;;4949558;28;20104;-79
2022/04/20 05:15:40;;;;;;;0.73;0.73;;;3.40;99.90;;;;;;4941970;29;20039;-79
2022/04/20 05:18:06;;;;;;;0.52;0.52;;;3.50;99.90;;;;;;4968701;28;20057;-79
2022/04/20 05:20:31;;;;;;;0.70;0.70;;;3.60;99.90;;;;;;4936110;28;20053;-79
2022/04/20 05:22:57;;;;;;;0.70;0.70;;;3.70;99.90;;;;;;5009230;28;20066;-78
2022/04/20 05:25:24;;;;;;;0.68;0.68;;;3.70;99.90;;;;;;4965079;28;20173;-80
2022/04/20 05:27:51;;;;;;;0.70;0.70;;;4.00;99.90;;;;;;4952059;28;20485;-79
2022/04/20 05:30:17;;;;;;;0.73;0.73;;;3.90;99.90;;;;;;4967457;28;20104;-78
2022/04/20 05:32:42;;;;;;;0.60;0.60;;;4.00;99.90;;;;;;5035422;28;20081;-79
2022/04/20 05:35:09;;;;;;;0.82;0.82;;;4.10;99.90;;;;;;4948756;28;20039;-79
2022/04/20 05:43:04;;;;;;;0.60;0.60;;;4.50;99.90;;;;;;4963903;28;20043;-78
2022/04/20 05:45:30;;;;;;;0.60;0.60;;;4.60;99.90;;;;;;4958400;28;20061;-79
2022/04/20 05:47:58;;;;;;;0.60;0.60;;;4.70;99.90;;;;;;4963060;28;20145;-78
2022/04/20 05:50:24;;;;;;;0.50;0.50;;;5.10;99.90;;;;;;4948145;28;20042;-76
2022/04/20 05:52:55;;;;;;;0.60;0.60;;;4.90;99.90;;;;;;4950864;28;20465;-78
2022/04/20 05:55:21;;;;;;;0.60;0.60;;;5.00;99.90;;;;;;4950001;28;20038;-75
2022/04/20 05:57:48;;;;;;;0.60;0.60;;;5.10;99.90;;;;;;4964455;28;20713;-75
2022/04/20 06:00:15;;;;;;;0.77;0.77;;;5.20;99.90;;;;;;4953846;28;20423;-77
2022/04/20 06:02:40;;;;;;;0.70;0.70;;;5.20;99.90;;;;;;4940945;29;20126;-75
2022/04/20 06:05:07;;;;;;;0.65;0.65;;;5.30;99.90;;;;;;4929281;28;20544;-77
2022/04/20 06:07:37;;;;;;;0.70;0.70;;;5.40;99.90;;;;;;4959062;28;20092;-76
2022/04/20 06:10:03;;;;;;;0.70;0.70;;;5.50;99.90;;;;;;4937448;28;20038;-75
2022/04/20 06:12:29;;;;;;;0.60;0.60;;;5.60;99.90;;;;;;4973636;28;20035;-76
2022/04/20 06:14:55;;;;;;;0.55;0.55;;;5.90;99.90;;;;;;4954636;28;21309;-75
2022/04/20 06:17:20;;;;;;;0.50;0.50;;;5.80;99.90;;;;;;4967515;28;20048;-77
2022/04/20 06:19:46;;;;;;;0.50;0.50;;;5.90;99.90;;;;;;4959150;28;20043;-76
2022/04/20 06:22:13;;;;;;;0.70;0.70;;;6.00;99.90;;;;;;4968382;28;20047;-75
2022/04/20 06:24:39;;;;;;;0.50;0.50;;;6.10;99.90;;;;;;4961176;28;20081;-77
2022/04/20 06:27:07;;;;;;;0.60;0.60;;;6.20;99.90;;;;;;4950665;28;20062;-76
2022/04/20 06:29:35;;;;;;;0.60;0.60;;;6.30;99.90;;;;;;4962304;28;20047;-76
2022/04/20 06:32:01;;;;;;;0.40;0.40;;;6.50;99.90;;;;;;4959692;28;20391;-75
2022/04/20 06:34:27;;;;;;;0.43;0.43;;;6.60;99.90;;;;;;4935450;28;20041;-79
2022/04/20 06:36:54;;;;;;;0.60;0.60;;;6.90;99.90;;;;;;4933351;28;20669;-78
2022/04/20 06:39:20;;;;;;;0.50;0.50;;;6.90;99.90;;;;;;4952812;28;20535;-78
2022/04/20 06:41:46;;;;;;;0.60;0.60;;;7.00;99.90;;;;;;4952123;28;20042;-78
2022/04/20 06:44:11;;;;;;;0.60;0.60;;;7.40;99.90;;;;;;4940600;28;20069;-78
2022/04/20 06:46:37;;;;;;;;;;;7.50;99.90;;;;;;4934478;28;20086;-81
2022/04/20 06:49:03;;;;;;;0.40;0.40;;;7.40;99.90;;;;;;5034588;28;19938;-79
2022/04/20 06:58:31;;;;;;;0.43;0.43;;;8.10;99.90;;;;;;4969172;28;20055;-78
2022/04/20 06:59:50;;;;;;;0.50;0.50;;;7.90;99.90;;;;;;4956870;28;20058;-79
2022/04/20 07:02:16;;;;;;;0.50;0.50;;;8.10;99.90;;;;;;4947348;28;20043;-81
2022/04/20 07:04:43;;;;;;;0.40;0.40;;;8.20;99.90;;;;;;4938514;28;20062;-82
2022/04/20 07:07:09;;;;;;;;;;;8.30;99.90;;;;;;4976508;28;20050;-81
2022/04/20 07:09:36;;;;;;;0.70;0.70;;;7.90;99.90;;;;;;5008870;28;19920;-81
2022/04/20 07:12:01;;;;;;;0.50;0.50;;;8.40;99.90;;;;;;4934811;28;20100;-78
2022/04/20 07:14:27;;;;;;;0.50;0.50;;;8.50;99.90;;;;;;4977524;28;20039;-83
2022/04/20 07:16:53;;;;;;;0.50;0.50;;;8.60;99.90;;;;;;4950115;28;20038;-85
2022/04/20 07:19:19;;;;;;;0.43;0.43;;;8.60;99.90;;;;;;4958396;28;20091;-84
2022/04/20 07:21:44;;;;;;;0.40;0.40;;;8.70;99.90;;;;;;4973668;28;20133;-84
2022/04/20 07:24:10;;;;;;;0.68;0.68;;;8.80;99.90;;;;;;4975808;28;20096;-81
2022/04/20 07:26:36;;;;;;;0.40;0.40;;;8.90;99.90;;;;;;4952556;28;20038;-82
2022/04/20 07:29:01;;;;;;;0.50;0.50;;;9.00;99.90;;;;;;4954960;28;20128;-81
2022/04/20 07:31:27;;;;;;;0.47;0.47;;;9.10;99.90;;;;;;4970636;28;20047;-82
2022/04/20 07:33:53;;;;;;;1.33;1.23;;;9.30;99.90;;;;;;4934324;28;20040;-82
2022/04/20 07:36:21;;;;;;;0.70;0.70;;;9.40;99.90;;;;;;4924724;28;20051;-79
2022/04/20 07:38:48;;;;;;;0.40;0.40;;;9.50;99.90;;;;;;4969195;28;20491;-78
2022/04/20 07:41:15;;;;;;;0.50;0.50;;;9.60;99.90;;;;;;4926534;28;20395;-81
2022/04/20 07:43:40;;;;;;;0.40;0.40;;;9.60;99.90;;;;;;4945080;28;20141;-82
2022/04/20 07:46:06;;;;;;;0.55;0.55;;;9.70;99.90;;;;;;4944670;28;20056;-81
2022/04/20 07:48:32;;;;;;;0.50;0.50;;;9.90;99.90;;;;;;4936949;28;20039;-80
2022/04/20 07:51:00;;;;;;;0.38;0.38;;;10.00;99.90;;;;;;4953911;28;20047;-80
2022/04/20 07:53:27;;;;;;;0.30;0.30;;;10.10;99.90;;;;;;4957580;28;20042;-80
2022/04/20 07:55:52;;;;;;;;;;;10.10;99.90;;;;;;4957569;28;20043;-79
2022/04/20 07:58:18;;;;;;;0.40;0.40;;;10.20;99.90;;;;;;4971560;28;19925;-81
2022/04/20 08:00:45;;;;;;;0.35;0.35;;;10.30;99.90;;;;;;4945929;29;20509;-82
2022/04/20 08:03:12;;;;;;;0.30;0.30;;;10.40;99.90;;;;;;4935880;28;20043;-83
2022/04/20 08:05:40;;;;;;;0.32;0.32;;;10.50;99.90;;;;;;4967406;28;20649;-79
2022/04/20 08:08:07;;;;;;;0.32;0.32;;;10.60;99.90;;;;;;4927016;28;20050;-79
2022/04/20 08:10:33;;;;;;;0.35;0.35;;;10.70;99.90;;;;;;4961121;28;20092;-83
2022/04/20 08:14:09;;;;;;;0.30;0.30;;;10.70;99.90;;;;;;4951598;28;20520;-78
2022/04/20 08:15:46;;;;;;;0.20;0.20;;;10.90;99.90;;;;;;4954423;28;20104;-76
2022/04/20 08:18:12;;;;;;;0.30;0.30;;;10.80;99.90;;;;;;4955052;28;20043;-78
2022/04/20 08:20:38;;;;;;;0.40;0.40;;;11.00;99.90;;;;;;4932653;28;20061;-75
2022/04/20 08:23:03;;;;;;;0.45;0.45;;;11.00;99.90;;;;;;4933481;28;20057;-77
2022/04/20 08:25:29;;;;;;;0.35;0.35;;;11.10;99.90;;;;;;4941841;28;20045;-80
2022/04/20 08:27:55;;;;;;;0.50;0.50;;;11.10;99.90;;;;;;4953309;28;20042;-77
2022/04/20 08:30:20;;;;;;;0.38;0.38;;;11.20;99.90;;;;;;4984446;28;20054;-80
2022/04/20 08:32:46;;;;;;;0.50;0.50;;;11.30;99.90;;;;;;4963745;28;20043;-79
2022/04/20 08:35:12;;;;;;;0.30;0.30;;;11.30;99.90;;;;;;4943291;28;20031;-79
2022/04/20 08:37:38;;;;;;;0.30;0.30;;;11.40;99.90;;;;;;4967744;28;20126;-81
2022/04/20 08:40:04;;;;;;;0.30;0.30;;;11.50;99.90;;;;;;4950563;28;20489;-79
2022/04/20 08:42:33;;;;;;;0.40;0.40;;;11.60;99.90;;;;;;4968075;28;20048;-78
2022/04/20 08:45:02;;;;;;;0.40;0.40;;;11.70;99.90;;;;;;4947537;28;20496;-78
2022/04/20 08:47:37;;;;;;;0.50;0.50;;;11.80;99.70;;;;;;4962468;28;20039;-76
2022/04/20 08:50:05;;;;;;;0.40;0.40;;;11.80;97.70;;;;;;4958555;28;20039;-78
2022/04/20 08:52:46;;;;;;;0.30;0.30;;;11.90;98.70;;;;;;4984004;28;20035;-78
2022/04/20 08:55:17;;;;;;;0.50;0.50;;;11.90;97.30;;;;;;4958796;28;20058;-80
2022/04/20 08:57:52;;;;;;;0.40;0.40;;;12.00;96.80;;;;;;4958246;28;20051;-81
2022/04/20 09:00:27;;;;;;;0.50;0.50;;;12.10;96.70;;;;;;4955082;28;20050;-81
2022/04/20 09:02:57;;;;;;;0.88;0.88;;;12.20;96.60;;;;;;4950338;28;20039;-80
2022/04/20 09:05:24;;;;;;;0.30;0.30;;;12.20;95.70;;;;;;4961465;28;20065;-80
2022/04/20 09:07:51;;;;;;;0.40;0.40;;;12.30;95.30;;;;;;4935440;28;20137;-79
2022/04/20 09:10:18;;;;;;;0.20;0.20;;;12.40;96.10;;;;;;4965410;28;20048;-85
2022/04/20 09:12:45;;;;;;;0.20;0.20;;;12.50;95.00;;;;;;4972203;28;20229;-83
2022/04/20 09:15:31;;;;;;;0.28;0.28;;;12.50;93.90;;;;;;4965691;28;20489;-82
2022/04/20 09:17:58;;;;;;;0.30;0.30;;;12.60;94.20;;;;;;4963188;28;20062;-81
2022/04/20 09:20:23;;;;;;;0.52;0.52;;;12.70;96.30;;;;;;4973665;28;20381;-77
2022/04/20 09:23:04;;;;;;;0.50;0.50;;;12.80;95.20;;;;;;4944380;28;20055;-81
2022/04/20 09:25:35;;;;;;;0.20;0.20;;;11.50;92.50;;;;;;4966403;28;20062;-80
2022/04/20 09:28:04;;;;;;;0.30;0.30;;;12.90;92.30;;;;;;4968502;28;20039;-84
2022/04/20 09:30:38;;;;;;;0.40;0.40;;;13.00;92.40;;;;;;4963402;28;20475;-81
2022/04/20 09:33:10;;;;;;;0.30;0.30;;;13.00;91.80;;;;;;4958935;28;20142;-77
2022/04/20 09:35:47;;;;;;;0.38;0.38;;;13.00;92.90;;;;;;4970100;28;20119;-78
2022/04/20 09:38:13;;;;;;;;;;;13.10;92.50;;;;;;4941931;28;20043;-77
2022/04/20 09:40:39;;;;;;;0.30;0.30;;;13.10;91.10;;;;;;4984646;28;19991;-75
2022/04/20 09:43:09;;;;;;;0.32;0.32;;;13.20;92.10;;;;;;4956052;28;20057;-78
2022/04/20 09:45:36;;;;;;;0.30;0.30;;;13.20;93.60;;;;;;4952768;28;20058;-80
2022/04/20 09:51:14;;;;;;;0.28;0.28;;;13.30;92.10;;;;;;4970761;28;20035;-79
2022/04/20 09:53:41;;;;;;;0.40;0.40;;;13.40;88.30;;;;;;4966841;28;20046;-77
2022/04/20 09:56:24;;;;;;;0.25;0.25;;;13.40;87.90;;;;;;4954706;28;20057;-80
2022/04/20 09:59:01;;;;;;;0.40;0.40;;;13.50;87.30;;;;;;4968680;28;20476;-80
2022/04/20 10:01:47;;;;;;;0.30;0.30;;;13.50;87.40;;;;;;4973565;28;20075;-80
2022/04/20 10:04:14;;;;;;;0.40;0.40;;;13.50;86.30;;;;;;4965287;28;20046;-76
2022/04/20 10:06:43;;;;;;;0.30;0.30;;;13.60;88.10;;;;;;4959135;28;20046;-78
2022/04/20 10:09:09;;;;;;;0.20;0.20;;;13.70;88.50;;;;;;4946354;28;20043;-78
2022/04/20 10:11:36;;;;;;;0.50;0.50;;;13.80;86.30;;;;;;4944680;28;20034;-76
2022/04/20 10:16:54;;;;;;;0.30;0.30;;;13.80;82.30;;;;;;4960896;28;20062;-78
2022/04/20 10:19:28;;;;;;;0.22;0.22;;;13.80;78.80;;;;;;4963734;28;20510;-74
2022/04/20 10:21:57;;;;;;;0.30;0.30;;;13.90;85.20;;;;;;4961295;28;20074;-76
2022/04/20 10:24:30;;;;;;;0.45;0.45;;;14.00;85.10;;;;;;4965004;28;20471;-76
2022/04/20 10:27:03;;;;;;;0.20;0.20;;;14.10;80.30;;;;;;4944231;28;20057;-79
2022/04/20 10:29:48;;;;;;;0.30;0.30;;;14.20;83.00;;;;;;4963451;28;20049;-77
2022/04/20 10:32:31;;;;;;;0.20;0.20;;;14.30;85.10;;;;;;4949690;28;20406;-76
2022/04/20 10:34:59;;;;;;;0.32;0.32;;;14.30;75.60;;;;;;4964766;28;20146;-75
2022/04/20 10:37:29;;;;;;;0.30;0.30;;;14.30;75.60;;;;;;4931039;28;20043;-77
2022/04/20 10:40:16;;;;;;;0.30;0.30;;;14.50;79.50;;;;;;4938019;28;20047;-77
2022/04/20 10:42:42;;;;;;;0.30;0.30;;;14.50;76.80;;;;;;4956433;28;21233;-75
2022/04/20 10:45:08;;;;;;;0.40;0.40;;;14.60;78.90;;;;;;4960966;28;20041;-75
2022/04/20 10:47:42;;;;;;;0.57;0.57;;;14.70;79.10;;;;;;4959596;28;20039;-74
2022/04/20 10:50:17;;;;;;;0.20;0.20;;;14.80;81.00;;;;;;4954003;28;20042;-75
2022/04/20 10:52:56;;;;;;;0.22;0.22;;;14.90;79.90;;;;;;4940436;28;20062;-75
2022/04/20 10:55:45;;;;;;;0.30;0.30;;;15.10;76.80;;;;;;4959131;28;20104;-76
2022/04/20 10:58:20;;;;;;;0.30;0.30;;;15.20;75.90;;;;;;4956630;28;20112;-75
2022/04/20 11:00:45;;;;;;;0.32;0.32;;;15.30;78.80;;;;;;4943730;28;20065;-78
2022/04/20 11:03:12;;;;;;;0.30;0.30;;;15.30;80.30;;;;;;4963653;28;20051;-75
2022/04/20 11:05:55;;;;;;;0.30;0.30;;;15.40;74.90;;;;;;4939480;28;20084;-79
2022/04/20 11:08:22;;;;;;;0.50;0.50;;;15.40;75.40;;;;;;4942158;28;20050;-81
2022/04/20 11:19:33;;;;;;;0.20;0.20;;;15.70;79.30;;;;;;4953722;28;20055;-77
2022/04/20 11:22:09;;;;;;;0.20;0.20;;;15.80;73.70;;;;;;4956471;28;20054;-79
2022/04/20 11:24:34;;;;;;;0.35;0.35;;;15.80;77.30;;;;;;4965133;28;20134;-80
2022/04/20 11:27:00;;;;;;;0.38;0.38;;;15.90;68.70;;;;;;4958257;28;20042;-81
2022/04/20 11:29:28;;;;;;;0.30;0.30;;;15.90;76.50;;;;;;4947688;28;20050;-81
2022/04/20 11:32:05;;;;;;;0.30;0.30;;;16.00;75.50;;;;;;4948001;28;20671;-77
2022/04/20 11:34:36;;;;;;;0.68;0.68;;;16.00;74.00;;;;;;4983244;28;20066;-78
2022/04/20 11:37:06;;;;;;;0.30;0.30;;;16.10;74.50;;;;;;4979648;28;20046;-78
2022/04/20 11:39:32;;;;;;;0.30;0.30;;;16.20;74.40;;;;;;4978897;28;20047;-79
2022/04/20 11:42:03;;;;;;;0.40;0.40;;;16.30;73.20;;;;;;4946599;28;20116;-76
2022/04/20 11:44:36;;;;;;;0.22;0.22;;;16.40;76.70;;;;;;4948389;28;20065;-75
2022/04/20 11:47:07;;;;;;;0.30;0.30;;;16.40;68.80;;;;;;4947186;28;20053;-75
2022/04/20 11:49:44;;;;;;;0.25;0.25;;;16.40;71.70;;;;;;4972193;28;20117;-78
2022/04/20 11:52:13;;;;;;;0.20;0.20;;;16.50;74.50;;;;;;4952195;28;20684;-75
2022/04/20 11:54:40;;;;;;;0.30;0.30;;;16.60;75.70;;;;;;4947654;28;20062;-77
2022/04/20 11:57:07;;;;;;;0.30;0.30;;;16.70;73.90;;;;;;4974491;28;20484;-80
2022/04/20 11:59:33;;;;;;;0.35;0.35;;;16.80;73.30;;;;;;4942396;28;20085;-79
2022/04/20 12:01:59;;;;;;;;;;;16.90;70.50;;;;;;4948635;28;20057;-79
2022/04/20 12:04:27;;;;;;;0.30;0.30;;;16.90;71.10;;;;;;4946218;28;20375;-76
2022/04/20 12:06:55;;;;;;;0.20;0.20;;;16.80;68.70;;;;;;4958933;28;20061;-76
2022/04/20 12:09:22;;;;;;;0.30;0.30;;;16.90;73.30;;;;;;4941006;28;20043;-78
2022/04/20 12:11:54;;;;;;;0.30;0.30;;;17.10;73.10;;;;;;4947909;28;20043;-78
2022/04/20 12:14:22;;;;;;;0.30;0.30;;;17.20;72.20;;;;;;4947735;28;20173;-76
2022/04/20 12:16:50;;;;;;;0.60;0.60;;;17.20;74.10;;;;;;4951216;28;21263;-76
2022/04/20 12:19:17;;;;;;;0.30;0.30;;;17.20;73.30;;;;;;4956143;28;20043;-77
2022/04/20 12:21:45;;;;;;;0.50;0.50;;;17.40;71.10;;;;;;4963696;28;20141;-76
2022/04/20 12:24:29;;;;;;;0.30;0.30;;;17.50;70.60;;;;;;4967975;28;20101;-79
2022/04/20 12:26:58;;;;;;;;;;;17.60;72.60;;;;;;4964131;28;20055;-76
2022/04/20 12:29:28;;;;;;;0.30;0.30;;;17.70;71.00;;;;;;4941109;28;19980;-77
2022/04/20 12:31:55;;;;;;;0.30;0.30;;;17.70;69.20;;;;;;5028017;28;20030;-80
2022/04/20 12:34:26;;;;;;;0.30;0.30;;;17.80;73.20;;;;;;4951082;28;20039;-78
2022/04/20 12:36:59;;;;;;;0.32;0.32;;;17.90;71.60;;;;;;4962914;28;20046;-76
2022/04/20 12:39:38;;;;;;;0.30;0.30;;;18.00;69.30;;;;;;4957860;28;20054;-80
2022/04/20 12:42:15;;;;;;;0.35;0.35;;;18.20;73.60;;;;;;4964808;28;20244;-76
2022/04/20 12:44:58;;;;;;;0.30;0.30;;;18.20;71.30;;;;;;4968605;28;20043;-79
2022/04/20 12:47:27;;;;;;;0.38;0.38;;;18.30;69.20;;;;;;4961248;28;20031;-80
2022/04/20 12:49:53;;;;;;;0.30;0.30;;;18.20;70.50;;;;;;4973078;28;20039;-75
2022/04/20 12:52:20;;;;;;;;;;;18.40;65.50;;;;;;4978275;28;20038;-76
2022/04/20 12:55:14;;;;;;;;;;;18.40;67.80;;;;;;4965568;28;20393;-75
2022/04/20 13:03:30;;;;;;;0.30;0.30;;;18.00;67.50;;;;;;4966894;28;20104;-79
2022/04/20 13:05:56;;;;;;;0.30;0.30;;;18.20;68.10;;;;;;4950608;28;20765;-78
2022/04/20 13:08:21;;;;;;;;;;;18.60;66.10;;;;;;4928826;28;20112;-74
2022/04/20 13:10:49;;;;;;;0.30;0.30;;;18.80;70.40;;;;;;4965041;28;20518;-75
2022/04/20 13:13:15;;;;;;;0.20;0.20;;;18.80;69.70;;;;;;5033203;28;20043;-77
2022/04/20 13:15:42;;;;;;;0.35;0.35;;;18.70;71.20;;;;;;4961003;28;20461;-74
2022/04/20 13:18:09;;;;;;;0.77;0.77;;;18.50;73.80;;;;;;4950451;28;20042;-79
2022/04/20 13:20:35;;;;;;;4.90;0.68;;;18.30;74.30;;;;;;4982297;28;20046;-79
2022/04/20 13:23:01;;;;;;;0.32;0.32;;;18.10;76.40;;;;;;4950351;28;20051;-75
2022/04/20 13:28:11;;;;;;;0.43;0.43;;;18.00;75.00;;;;;;4962241;28;20082;-75
2022/04/20 13:30:39;;;;;;;2.10;0.90;;;18.10;75.30;;;;;;4948255;28;20046;-78
2022/04/20 13:33:13;;;;;;;0.28;0.28;;;18.30;76.00;;;;;;4949359;28;20043;-76
2022/04/20 13:35:45;;;;;;;0.40;0.40;;;18.70;75.40;;;;;;4961477;28;20038;-78
2022/04/20 13:38:16;;;;;;;0.50;0.50;;;19.10;75.80;;;;;;4962159;28;20053;-76
2022/04/20 13:40:42;;;;;;;0.20;0.20;;;19.40;70.00;;;;;;4963761;28;20051;-75
2022/04/20 13:43:09;;;;;;;0.38;0.28;;;19.60;72.80;;;;;;4967237;28;20120;-79